sensor_id;sensor_type;location;lat;lon;timestamp;temperature;humidity
27540;DHT22;15906;52.046;4.724;2023-03-25T00:01:00;10.10;99.90
27540;DHT22;15906;52.046;4.724;2023-03-25T00:03:31;10.10;99.90
27540;DHT22;15906;52.046;4.724;2023-03-25T00:05:59;10.20;99.90
27540;DHT22;15906;52.046;4.724;2023-03-25T00:08:26;10.10;99.90
27540;DHT22;15906;52.046;4.724;2023-03-25T00:10:53;10.20;99.90
27540;DHT22;15906;52.046;4.724;2023-03-25T00:13:19;10.20;99.90
27540;DHT22;15906;52.046;4.724;2023-03-25T00:15:46;10.20;99.90
27540;DHT22;15906;52.046;4.724;2023-03-25T00:18:12;10.10;99.90
27540;DHT22;15906;52.046;4.724;2023-03-25T00:20:38;10.10;99.90
27540;DHT22;15906;52.046;4.724;2023-03-25T00:23:07;10.10;99.90
27540;DHT22;15906;52.046;4.724;2023-03-25T00:25:33;10.10;99.90
27540;DHT22;15906;52.046;4.724;2023-03-25T00:27:59;10.10;99.90
27540;DHT22;15906;52.046;4.724;2023-03-25T00:30:25;10.10;99.90
27540;DHT22;15906;52.046;4.724;2023-03-25T00:32:50;10.00;99.90
27540;DHT22;15906;52.046;4.724;2023-03-25T00:35:17;10.00;99.90
27540;DHT22;15906;52.046;4.724;2023-03-25T00:37:47;10.00;99.90
27540;DHT22;15906;52.046;4.724;2023-03-25T00:40:16;10.00;99.90
27540;DHT22;15906;52.046;4.724;2023-03-25T00:42:42;10.00;99.90
27540;DHT22;15906;52.046;4.724;2023-03-25T00:45:10;10.00;99.90
27540;DHT22;15906;52.046;4.724;2023-03-25T00:47:36;10.00;99.90
27540;DHT22;15906;52.046;4.724;2023-03-25T00:50:03;10.00;99.90
27540;DHT22;15906;52.046;4.724;2023-03-25T00:52:28;10.00;99.90
27540;DHT22;15906;52.046;4.724;2023-03-25T00:54:54;10.00;99.90
27540;DHT22;15906;52.046;4.724;2023-03-25T00:57:20;10.00;99.90
27540;DHT22;15906;52.046;4.724;2023-03-25T00:59:46;10.00;99.90
27540;DHT22;15906;52.046;4.724;2023-03-25T01:02:12;10.00;99.90
27540;DHT22;15906;52.046;4.724;2023-03-25T01:04:38;10.00;99.90
27540;DHT22;15906;52.046;4.724;2023-03-25T01:07:04;10.00;99.90
27540;DHT22;15906;52.046;4.724;2023-03-25T01:09:30;10.00;99.90
27540;DHT22;15906;52.046;4.724;2023-03-25T01:11:56;10.00;99.90
27540;DHT22;15906;52.046;4.724;2023-03-25T01:14:22;10.00;99.90
27540;DHT22;15906;52.046;4.724;2023-03-25T01:16:49;10.00;99.90
27540;DHT22;15906;52.046;4.724;2023-03-25T01:19:14;10.00;99.90
27540;DHT22;15906;52.046;4.724;2023-03-25T01:21:40;10.00;99.90
27540;DHT22;15906;52.046;4.724;2023-03-25T01:24:07;10.00;99.90
27540;DHT22;15906;52.046;4.724;2023-03-25T01:26:33;9.80;99.90
27540;DHT22;15906;52.046;4.724;2023-03-25T01:28:58;9.70;99.90
27540;DHT22;15906;52.046;4.724;2023-03-25T01:31:24;9.60;99.90
27540;DHT22;15906;52.046;4.724;2023-03-25T01:33:58;9.60;99.90
27540;DHT22;15906;52.046;4.724;2023-03-25T01:36:25;9.50;99.90
27540;DHT22;15906;52.046;4.724;2023-03-25T01:38:54;9.40;99.90
27540;DHT22;15906;52.046;4.724;2023-03-25T01:41:21;9.40;99.90
27540;DHT22;15906;52.046;4.724;2023-03-25T01:46:29;9.40;99.90
27540;DHT22;15906;52.046;4.724;2023-03-25T01:48:55;9.50;99.90
27540;DHT22;15906;52.046;4.724;2023-03-25T01:51:24;9.60;99.90
27540;DHT22;15906;52.046;4.724;2023-03-25T01:53:52;9.50;99.90
27540;DHT22;15906;52.046;4.724;2023-03-25T01:56:21;9.40;99.90
27540;DHT22;15906;52.046;4.724;2023-03-25T01:58:48;9.40;99.90
27540;DHT22;15906;52.046;4.724;2023-03-25T02:01:17;9.40;99.90
27540;DHT22;15906;52.046;4.724;2023-03-25T02:03:47;9.40;99.90
27540;DHT22;15906;52.046;4.724;2023-03-25T02:06:20;9.40;99.90
27540;DHT22;15906;52.046;4.724;2023-03-25T02:08:49;9.40;99.90
27540;DHT22;15906;52.046;4.724;2023-03-25T02:11:16;9.40;99.90
27540;DHT22;15906;52.046;4.724;2023-03-25T02:13:42;9.40;99.90
27540;DHT22;15906;52.046;4.724;2023-03-25T02:18:58;9.50;99.90
27540;DHT22;15906;52.046;4.724;2023-03-25T02:25:01;9.40;99.90
27540;DHT22;15906;52.046;4.724;2023-03-25T02:27:40;9.40;99.90
27540;DHT22;15906;52.046;4.724;2023-03-25T02:40:41;9.50;99.90
27540;DHT22;15906;52.046;4.724;2023-03-25T02:44:21;9.60;99.90
27540;DHT22;15906;52.046;4.724;2023-03-25T02:46:25;9.60;99.90
27540;DHT22;15906;52.046;4.724;2023-03-25T02:51:24;9.50;99.90
27540;DHT22;15906;52.046;4.724;2023-03-25T02:53:52;9.50;99.90
27540;DHT22;15906;52.046;4.724;2023-03-25T02:56:22;9.50;99.90
27540;DHT22;15906;52.046;4.724;2023-03-25T02:58:51;9.50;99.90
27540;DHT22;15906;52.046;4.724;2023-03-25T03:01:20;9.50;99.90
27540;DHT22;15906;52.046;4.724;2023-03-25T03:03:47;9.50;99.90
27540;DHT22;15906;52.046;4.724;2023-03-25T03:06:16;9.50;99.90
27540;DHT22;15906;52.046;4.724;2023-03-25T03:11:27;9.50;99.90
27540;DHT22;15906;52.046;4.724;2023-03-25T03:21:39;9.50;99.90
27540;DHT22;15906;52.046;4.724;2023-03-25T03:24:22;9.40;99.90
27540;DHT22;15906;52.046;4.724;2023-03-25T03:27:08;9.40;99.90
27540;DHT22;15906;52.046;4.724;2023-03-25T03:29:47;9.30;99.90
27540;DHT22;15906;52.046;4.724;2023-03-25T03:32:19;9.30;99.90
27540;DHT22;15906;52.046;4.724;2023-03-25T03:34:51;9.30;99.90
27540;DHT22;15906;52.046;4.724;2023-03-25T03:37:25;9.30;99.90
27540;DHT22;15906;52.046;4.724;2023-03-25T03:39:53;9.20;99.90
27540;DHT22;15906;52.046;4.724;2023-03-25T03:42:28;9.20;99.90
27540;DHT22;15906;52.046;4.724;2023-03-25T03:45:08;9.10;99.90
27540;DHT22;15906;52.046;4.724;2023-03-25T03:47:42;9.00;99.90
27540;DHT22;15906;52.046;4.724;2023-03-25T03:50:17;9.00;99.90
27540;DHT22;15906;52.046;4.724;2023-03-25T03:52:55;9.00;99.90
27540;DHT22;15906;52.046;4.724;2023-03-25T03:55:29;9.00;99.90
27540;DHT22;15906;52.046;4.724;2023-03-25T03:58:01;9.00;99.90
27540;DHT22;15906;52.046;4.724;2023-03-25T04:01:06;9.10;99.90
27540;DHT22;15906;52.046;4.724;2023-03-25T04:03:44;9.00;99.90
27540;DHT22;15906;52.046;4.724;2023-03-25T04:06:24;9.00;99.90
27540;DHT22;15906;52.046;4.724;2023-03-25T04:08:58;9.00;99.90
27540;DHT22;15906;52.046;4.724;2023-03-25T04:11:34;9.00;99.90
27540;DHT22;15906;52.046;4.724;2023-03-25T04:14:02;8.90;99.90
27540;DHT22;15906;52.046;4.724;2023-03-25T04:16:28;8.90;99.90
27540;DHT22;15906;52.046;4.724;2023-03-25T04:18:56;8.90;99.90
27540;DHT22;15906;52.046;4.724;2023-03-25T04:21:22;8.90;99.90
27540;DHT22;15906;52.046;4.724;2023-03-25T04:23:49;8.90;99.90
27540;DHT22;15906;52.046;4.724;2023-03-25T04:26:16;8.90;99.90
27540;DHT22;15906;52.046;4.724;2023-03-25T04:28:42;8.90;99.90
27540;DHT22;15906;52.046;4.724;2023-03-25T04:31:15;8.90;99.90
27540;DHT22;15906;52.046;4.724;2023-03-25T04:33:44;8.90;99.90
27540;DHT22;15906;52.046;4.724;2023-03-25T04:36:15;8.90;99.90
27540;DHT22;15906;52.046;4.724;2023-03-25T04:38:40;8.90;99.90
27540;DHT22;15906;52.046;4.724;2023-03-25T04:41:10;9.00;99.90
27540;DHT22;15906;52.046;4.724;2023-03-25T04:43:36;9.00;99.90
27540;DHT22;15906;52.046;4.724;2023-03-25T04:46:04;9.00;99.90
27540;DHT22;15906;52.046;4.724;2023-03-25T04:48:31;9.10;99.90
27540;DHT22;15906;52.046;4.724;2023-03-25T04:50:59;9.10;99.90
27540;DHT22;15906;52.046;4.724;2023-03-25T04:53:26;9.10;99.90
27540;DHT22;15906;52.046;4.724;2023-03-25T04:55:53;9.00;99.90
27540;DHT22;15906;52.046;4.724;2023-03-25T04:58:18;9.00;99.90
27540;DHT22;15906;52.046;4.724;2023-03-25T05:00:45;9.00;99.90
27540;DHT22;15906;52.046;4.724;2023-03-25T05:03:11;9.20;99.90
27540;DHT22;15906;52.046;4.724;2023-03-25T05:05:37;9.10;99.90
27540;DHT22;15906;52.046;4.724;2023-03-25T05:08:03;9.10;99.90
27540;DHT22;15906;52.046;4.724;2023-03-25T05:10:29;9.10;99.90
27540;DHT22;15906;52.046;4.724;2023-03-25T05:12:59;9.10;99.90
27540;DHT22;15906;52.046;4.724;2023-03-25T05:15:25;9.10;99.90
27540;DHT22;15906;52.046;4.724;2023-03-25T05:17:51;9.10;99.90
27540;DHT22;15906;52.046;4.724;2023-03-25T05:20:17;9.00;99.90
27540;DHT22;15906;52.046;4.724;2023-03-25T05:22:42;9.00;99.90
27540;DHT22;15906;52.046;4.724;2023-03-25T05:25:10;9.10;99.90
27540;DHT22;15906;52.046;4.724;2023-03-25T05:27:37;9.00;99.90
27540;DHT22;15906;52.046;4.724;2023-03-25T05:30:04;9.00;99.90
27540;DHT22;15906;52.046;4.724;2023-03-25T05:32:30;8.90;99.90
27540;DHT22;15906;52.046;4.724;2023-03-25T05:35:00;8.90;99.90
27540;DHT22;15906;52.046;4.724;2023-03-25T05:37:27;8.90;99.90
27540;DHT22;15906;52.046;4.724;2023-03-25T05:39:52;8.80;99.90
27540;DHT22;15906;52.046;4.724;2023-03-25T05:42:18;8.80;99.90
27540;DHT22;15906;52.046;4.724;2023-03-25T05:44:51;8.80;99.90
27540;DHT22;15906;52.046;4.724;2023-03-25T05:47:18;8.90;99.90
27540;DHT22;15906;52.046;4.724;2023-03-25T05:49:46;8.90;99.90
27540;DHT22;15906;52.046;4.724;2023-03-25T05:52:12;8.90;99.90
27540;DHT22;15906;52.046;4.724;2023-03-25T05:54:37;9.00;99.90
27540;DHT22;15906;52.046;4.724;2023-03-25T05:57:06;9.00;99.90
27540;DHT22;15906;52.046;4.724;2023-03-25T05:59:33;9.10;99.90
27540;DHT22;15906;52.046;4.724;2023-03-25T06:01:58;9.00;99.90
27540;DHT22;15906;52.046;4.724;2023-03-25T06:04:24;9.00;99.90
27540;DHT22;15906;52.046;4.724;2023-03-25T06:06:50;9.00;99.90
27540;DHT22;15906;52.046;4.724;2023-03-25T06:09:15;9.00;99.90
27540;DHT22;15906;52.046;4.724;2023-03-25T06:11:42;9.10;99.90
27540;DHT22;15906;52.046;4.724;2023-03-25T06:14:08;9.00;99.90
27540;DHT22;15906;52.046;4.724;2023-03-25T06:16:34;8.90;99.90
27540;DHT22;15906;52.046;4.724;2023-03-25T06:19:00;9.00;99.90
27540;DHT22;15906;52.046;4.724;2023-03-25T06:21:28;9.00;99.90
27540;DHT22;15906;52.046;4.724;2023-03-25T06:23:56;9.00;99.90
27540;DHT22;15906;52.046;4.724;2023-03-25T06:26:22;9.00;99.90
27540;DHT22;15906;52.046;4.724;2023-03-25T06:28:48;9.00;99.90
27540;DHT22;15906;52.046;4.724;2023-03-25T06:31:19;9.10;99.90
27540;DHT22;15906;52.046;4.724;2023-03-25T06:33:46;9.10;99.90
27540;DHT22;15906;52.046;4.724;2023-03-25T06:36:13;9.10;99.90
27540;DHT22;15906;52.046;4.724;2023-03-25T06:38:40;9.10;99.90
27540;DHT22;15906;52.046;4.724;2023-03-25T06:41:06;9.10;99.90
27540;DHT22;15906;52.046;4.724;2023-03-25T06:43:32;9.20;99.90
27540;DHT22;15906;52.046;4.724;2023-03-25T06:45:58;9.20;99.90
27540;DHT22;15906;52.046;4.724;2023-03-25T06:48:24;9.20;99.90
27540;DHT22;15906;52.046;4.724;2023-03-25T06:50:49;9.20;99.90
27540;DHT22;15906;52.046;4.724;2023-03-25T06:53:15;9.20;99.90
27540;DHT22;15906;52.046;4.724;2023-03-25T06:55:41;9.20;99.90
27540;DHT22;15906;52.046;4.724;2023-03-25T06:58:09;9.20;99.90
27540;DHT22;15906;52.046;4.724;2023-03-25T07:00:35;9.30;99.90
27540;DHT22;15906;52.046;4.724;2023-03-25T07:03:01;9.30;99.90
27540;DHT22;15906;52.046;4.724;2023-03-25T07:05:26;9.40;99.90
27540;DHT22;15906;52.046;4.724;2023-03-25T07:07:52;9.30;99.90
27540;DHT22;15906;52.046;4.724;2023-03-25T07:10:18;9.30;99.90
27540;DHT22;15906;52.046;4.724;2023-03-25T07:12:44;9.40;99.90
27540;DHT22;15906;52.046;4.724;2023-03-25T07:15:10;9.40;99.90
27540;DHT22;15906;52.046;4.724;2023-03-25T07:17:35;9.50;99.90
27540;DHT22;15906;52.046;4.724;2023-03-25T07:20:02;9.50;99.90
27540;DHT22;15906;52.046;4.724;2023-03-25T07:22:28;9.40;99.90
27540;DHT22;15906;52.046;4.724;2023-03-25T07:24:54;9.40;99.90
27540;DHT22;15906;52.046;4.724;2023-03-25T07:27:19;9.40;99.90
27540;DHT22;15906;52.046;4.724;2023-03-25T07:29:45;9.50;99.90
27540;DHT22;15906;52.046;4.724;2023-03-25T07:32:11;9.50;99.90
27540;DHT22;15906;52.046;4.724;2023-03-25T07:34:36;9.50;99.90
27540;DHT22;15906;52.046;4.724;2023-03-25T07:37:02;9.60;99.90
27540;DHT22;15906;52.046;4.724;2023-03-25T07:39:28;9.60;99.90
27540;DHT22;15906;52.046;4.724;2023-03-25T07:41:54;9.60;99.90
27540;DHT22;15906;52.046;4.724;2023-03-25T07:44:19;9.60;99.90
27540;DHT22;15906;52.046;4.724;2023-03-25T07:46:46;9.70;99.90
27540;DHT22;15906;52.046;4.724;2023-03-25T07:49:12;9.70;99.90
27540;DHT22;15906;52.046;4.724;2023-03-25T07:51:37;9.70;99.90
27540;DHT22;15906;52.046;4.724;2023-03-25T07:54:03;9.60;99.90
27540;DHT22;15906;52.046;4.724;2023-03-25T07:56:29;9.70;99.90
27540;DHT22;15906;52.046;4.724;2023-03-25T07:58:54;9.70;99.90
27540;DHT22;15906;52.046;4.724;2023-03-25T08:01:20;9.70;99.90
27540;DHT22;15906;52.046;4.724;2023-03-25T08:03:46;9.80;99.90
27540;DHT22;15906;52.046;4.724;2023-03-25T08:06:11;9.80;99.90
27540;DHT22;15906;52.046;4.724;2023-03-25T08:08:37;9.80;99.90
27540;DHT22;15906;52.046;4.724;2023-03-25T08:11:03;9.80;99.90
27540;DHT22;15906;52.046;4.724;2023-03-25T08:13:29;9.70;99.90
27540;DHT22;15906;52.046;4.724;2023-03-25T08:15:55;9.80;99.90
27540;DHT22;15906;52.046;4.724;2023-03-25T08:18:22;9.80;99.90
27540;DHT22;15906;52.046;4.724;2023-03-25T08:20:48;9.80;99.90
27540;DHT22;15906;52.046;4.724;2023-03-25T08:23:15;9.90;99.90
27540;DHT22;15906;52.046;4.724;2023-03-25T08:25:45;9.90;99.90
27540;DHT22;15906;52.046;4.724;2023-03-25T08:28:14;10.00;99.90
27540;DHT22;15906;52.046;4.724;2023-03-25T08:30:42;10.10;99.90
27540;DHT22;15906;52.046;4.724;2023-03-25T08:33:08;10.10;99.90
27540;DHT22;15906;52.046;4.724;2023-03-25T08:35:36;10.20;99.90
27540;DHT22;15906;52.046;4.724;2023-03-25T08:38:01;10.20;99.90
27540;DHT22;15906;52.046;4.724;2023-03-25T08:40:30;10.20;99.90
27540;DHT22;15906;52.046;4.724;2023-03-25T08:42:55;10.30;99.90
27540;DHT22;15906;52.046;4.724;2023-03-25T08:45:21;10.30;99.90
27540;DHT22;15906;52.046;4.724;2023-03-25T08:47:47;10.30;99.90
27540;DHT22;15906;52.046;4.724;2023-03-25T08:50:12;10.40;99.90
27540;DHT22;15906;52.046;4.724;2023-03-25T08:52:38;10.50;99.90
27540;DHT22;15906;52.046;4.724;2023-03-25T08:55:05;10.50;99.90
27540;DHT22;15906;52.046;4.724;2023-03-25T08:57:34;10.60;99.90
27540;DHT22;15906;52.046;4.724;2023-03-25T09:00:01;10.60;99.90
27540;DHT22;15906;52.046;4.724;2023-03-25T09:02:26;10.60;99.90
27540;DHT22;15906;52.046;4.724;2023-03-25T09:04:52;10.60;99.90
27540;DHT22;15906;52.046;4.724;2023-03-25T09:07:18;10.60;99.90
27540;DHT22;15906;52.046;4.724;2023-03-25T09:09:44;10.70;99.90
27540;DHT22;15906;52.046;4.724;2023-03-25T09:12:11;10.90;99.90
27540;DHT22;15906;52.046;4.724;2023-03-25T09:14:36;11.10;99.90
27540;DHT22;15906;52.046;4.724;2023-03-25T09:17:02;11.10;99.90
27540;DHT22;15906;52.046;4.724;2023-03-25T09:19:30;11.00;99.90
27540;DHT22;15906;52.046;4.724;2023-03-25T09:21:57;11.00;99.90
27540;DHT22;15906;52.046;4.724;2023-03-25T09:24:23;10.80;99.90
27540;DHT22;15906;52.046;4.724;2023-03-25T09:26:49;10.90;99.90
27540;DHT22;15906;52.046;4.724;2023-03-25T09:29:15;10.80;99.90
27540;DHT22;15906;52.046;4.724;2023-03-25T09:31:41;10.80;99.90
27540;DHT22;15906;52.046;4.724;2023-03-25T09:34:06;10.80;99.90
27540;DHT22;15906;52.046;4.724;2023-03-25T09:36:32;10.70;99.90
27540;DHT22;15906;52.046;4.724;2023-03-25T09:38:57;10.70;99.90
27540;DHT22;15906;52.046;4.724;2023-03-25T09:44:20;10.80;99.90
27540;DHT22;15906;52.046;4.724;2023-03-25T09:46:46;10.90;99.90
27540;DHT22;15906;52.046;4.724;2023-03-25T09:49:17;11.10;99.90
27540;DHT22;15906;52.046;4.724;2023-03-25T09:51:45;11.30;99.90
27540;DHT22;15906;52.046;4.724;2023-03-25T09:54:21;11.20;99.90
27540;DHT22;15906;52.046;4.724;2023-03-25T09:56:48;11.30;99.90
27540;DHT22;15906;52.046;4.724;2023-03-25T09:59:21;11.30;99.90
27540;DHT22;15906;52.046;4.724;2023-03-25T10:01:56;11.30;99.90
27540;DHT22;15906;52.046;4.724;2023-03-25T10:09:53;11.80;99.90
27540;DHT22;15906;52.046;4.724;2023-03-25T10:12:32;11.80;99.90
27540;DHT22;15906;52.046;4.724;2023-03-25T10:20:57;12.20;99.90
27540;DHT22;15906;52.046;4.724;2023-03-25T10:24:03;11.80;99.90
27540;DHT22;15906;52.046;4.724;2023-03-25T10:26:39;11.60;99.90
27540;DHT22;15906;52.046;4.724;2023-03-25T10:29:13;11.60;99.90
27540;DHT22;15906;52.046;4.724;2023-03-25T10:31:52;11.50;99.90
27540;DHT22;15906;52.046;4.724;2023-03-25T10:34:22;11.50;99.90
27540;DHT22;15906;52.046;4.724;2023-03-25T10:36:56;11.60;99.90
27540;DHT22;15906;52.046;4.724;2023-03-25T10:39:28;11.60;99.90
27540;DHT22;15906;52.046;4.724;2023-03-25T10:42:25;11.50;99.90
27540;DHT22;15906;52.046;4.724;2023-03-25T10:44:52;11.50;99.90
27540;DHT22;15906;52.046;4.724;2023-03-25T10:47:22;11.50;99.90
27540;DHT22;15906;52.046;4.724;2023-03-25T10:49:50;11.60;99.90
27540;DHT22;15906;52.046;4.724;2023-03-25T10:52:17;11.90;99.90
27540;DHT22;15906;52.046;4.724;2023-03-25T10:54:45;11.80;99.90
27540;DHT22;15906;52.046;4.724;2023-03-25T10:57:22;11.90;99.90
27540;DHT22;15906;52.046;4.724;2023-03-25T11:02:27;12.00;99.90
27540;DHT22;15906;52.046;4.724;2023-03-25T11:04:59;12.20;99.90
27540;DHT22;15906;52.046;4.724;2023-03-25T11:07:48;12.20;99.90
27540;DHT22;15906;52.046;4.724;2023-03-25T11:10:30;12.20;99.90
27540;DHT22;15906;52.046;4.724;2023-03-25T11:12:59;12.40;99.90
27540;DHT22;15906;52.046;4.724;2023-03-25T11:15:33;12.60;99.90
27540;DHT22;15906;52.046;4.724;2023-03-25T11:20:37;12.10;99.90
27540;DHT22;15906;52.046;4.724;2023-03-25T11:23:07;11.90;99.90
27540;DHT22;15906;52.046;4.724;2023-03-25T11:25:38;11.90;99.90
27540;DHT22;15906;52.046;4.724;2023-03-25T11:28:18;12.00;99.90
27540;DHT22;15906;52.046;4.724;2023-03-25T11:31:05;12.10;99.90
27540;DHT22;15906;52.046;4.724;2023-03-25T11:33:31;12.00;99.90
27540;DHT22;15906;52.046;4.724;2023-03-25T11:38:45;12.10;99.90
27540;DHT22;15906;52.046;4.724;2023-03-25T11:41:12;12.20;99.90
27540;DHT22;15906;52.046;4.724;2023-03-25T11:43:39;12.50;99.90
27540;DHT22;15906;52.046;4.724;2023-03-25T11:46:10;12.70;99.90
27540;DHT22;15906;52.046;4.724;2023-03-25T11:48:39;12.80;99.90
27540;DHT22;15906;52.046;4.724;2023-03-25T11:51:13;12.60;99.90
27540;DHT22;15906;52.046;4.724;2023-03-25T11:53:47;12.70;99.90
27540;DHT22;15906;52.046;4.724;2023-03-25T11:56:18;12.90;99.90
27540;DHT22;15906;52.046;4.724;2023-03-25T11:58:47;12.80;99.90
27540;DHT22;15906;52.046;4.724;2023-03-25T12:01:36;12.50;99.90
27540;DHT22;15906;52.046;4.724;2023-03-25T12:04:15;12.30;99.90
27540;DHT22;15906;52.046;4.724;2023-03-25T12:07:05;12.20;99.90
27540;DHT22;15906;52.046;4.724;2023-03-25T12:09:33;12.40;99.90
27540;DHT22;15906;52.046;4.724;2023-03-25T12:26:20;13.10;99.90
27540;DHT22;15906;52.046;4.724;2023-03-25T12:37:35;13.00;99.90
27540;DHT22;15906;52.046;4.724;2023-03-25T12:43:03;12.80;99.90
27540;DHT22;15906;52.046;4.724;2023-03-25T12:45:48;13.10;99.90
27540;DHT22;15906;52.046;4.724;2023-03-25T12:56:45;13.00;99.90
27540;DHT22;15906;52.046;4.724;2023-03-25T13:02:43;13.00;99.90
27540;DHT22;15906;52.046;4.724;2023-03-25T13:05:20;13.20;99.90
27540;DHT22;15906;52.046;4.724;2023-03-25T13:07:53;13.00;99.90
27540;DHT22;15906;52.046;4.724;2023-03-25T13:10:22;13.10;99.90
27540;DHT22;15906;52.046;4.724;2023-03-25T13:12:55;12.90;99.90
27540;DHT22;15906;52.046;4.724;2023-03-25T13:15:27;12.90;99.90
27540;DHT22;15906;52.046;4.724;2023-03-25T13:20:49;13.10;99.90
27540;DHT22;15906;52.046;4.724;2023-03-25T13:23:19;13.50;99.90
27540;DHT22;15906;52.046;4.724;2023-03-25T13:25:58;13.40;99.90
27540;DHT22;15906;52.046;4.724;2023-03-25T13:28:33;13.20;99.90
27540;DHT22;15906;52.046;4.724;2023-03-25T13:31:05;12.90;99.90
27540;DHT22;15906;52.046;4.724;2023-03-25T13:33:35;12.40;99.90
27540;DHT22;15906;52.046;4.724;2023-03-25T13:36:25;12.20;99.90
27540;DHT22;15906;52.046;4.724;2023-03-25T13:39:19;12.00;99.90
27540;DHT22;15906;52.046;4.724;2023-03-25T13:41:51;11.50;99.90
27540;DHT22;15906;52.046;4.724;2023-03-25T13:44:37;11.10;99.90
27540;DHT22;15906;52.046;4.724;2023-03-25T13:47:22;10.80;99.90
27540;DHT22;15906;52.046;4.724;2023-03-25T13:50:04;10.50;99.90
27540;DHT22;15906;52.046;4.724;2023-03-25T13:52:36;10.70;99.90
27540;DHT22;15906;52.046;4.724;2023-03-25T13:55:10;11.10;99.90
27540;DHT22;15906;52.046;4.724;2023-03-25T13:58:01;11.50;99.90
27540;DHT22;15906;52.046;4.724;2023-03-25T14:00:48;11.60;99.90
27540;DHT22;15906;52.046;4.724;2023-03-25T14:11:41;12.20;99.90
27540;DHT22;15906;52.046;4.724;2023-03-25T14:14:12;12.30;99.90
27540;DHT22;15906;52.046;4.724;2023-03-25T14:16:46;12.30;99.90
27540;DHT22;15906;52.046;4.724;2023-03-25T14:19:19;12.20;99.90
27540;DHT22;15906;52.046;4.724;2023-03-25T14:21:50;12.40;99.90
27540;DHT22;15906;52.046;4.724;2023-03-25T14:24:33;12.40;99.90
27540;DHT22;15906;52.046;4.724;2023-03-25T14:27:11;12.40;99.90
27540;DHT22;15906;52.046;4.724;2023-03-25T14:34:43;12.60;99.90
27540;DHT22;15906;52.046;4.724;2023-03-25T14:37:22;12.50;99.90
27540;DHT22;15906;52.046;4.724;2023-03-25T14:40:04;12.50;99.90
27540;DHT22;15906;52.046;4.724;2023-03-25T14:42:57;12.30;99.90
27540;DHT22;15906;52.046;4.724;2023-03-25T14:45:36;12.10;99.90
27540;DHT22;15906;52.046;4.724;2023-03-25T14:48:05;12.20;99.90
27540;DHT22;15906;52.046;4.724;2023-03-25T14:50:35;12.20;99.90
27540;DHT22;15906;52.046;4.724;2023-03-25T14:53:03;12.10;99.90
27540;DHT22;15906;52.046;4.724;2023-03-25T14:58:06;12.20;99.90
27540;DHT22;15906;52.046;4.724;2023-03-25T15:00:44;12.10;99.90
27540;DHT22;15906;52.046;4.724;2023-03-25T15:03:16;12.00;99.90
27540;DHT22;15906;52.046;4.724;2023-03-25T15:05:44;12.00;99.90
27540;DHT22;15906;52.046;4.724;2023-03-25T15:08:24;11.90;99.90
27540;DHT22;15906;52.046;4.724;2023-03-25T15:11:07;12.00;99.90
27540;DHT22;15906;52.046;4.724;2023-03-25T15:13:34;12.10;99.90
27540;DHT22;15906;52.046;4.724;2023-03-25T15:16:05;11.90;99.90
27540;DHT22;15906;52.046;4.724;2023-03-25T15:23:38;11.60;99.90
27540;DHT22;15906;52.046;4.724;2023-03-25T15:26:13;11.70;99.90
27540;DHT22;15906;52.046;4.724;2023-03-25T15:34:27;11.50;99.90
27540;DHT22;15906;52.046;4.724;2023-03-25T15:37:23;11.60;99.90
27540;DHT22;15906;52.046;4.724;2023-03-25T15:51:33;11.40;99.90
27540;DHT22;15906;52.046;4.724;2023-03-25T15:54:28;11.50;99.90
27540;DHT22;15906;52.046;4.724;2023-03-25T15:57:16;11.50;99.90
27540;DHT22;15906;52.046;4.724;2023-03-25T15:59:50;11.50;99.90
27540;DHT22;15906;52.046;4.724;2023-03-25T16:02:31;11.40;99.90
27540;DHT22;15906;52.046;4.724;2023-03-25T16:04:58;11.50;99.90
27540;DHT22;15906;52.046;4.724;2023-03-25T16:07:27;11.40;99.90
27540;DHT22;15906;52.046;4.724;2023-03-25T16:09:56;11.60;99.90
27540;DHT22;15906;52.046;4.724;2023-03-25T16:12:29;11.50;99.90
27540;DHT22;15906;52.046;4.724;2023-03-25T16:14:54;11.50;99.90
27540;DHT22;15906;52.046;4.724;2023-03-25T16:17:24;11.40;99.90
27540;DHT22;15906;52.046;4.724;2023-03-25T16:19:53;11.40;99.90
27540;DHT22;15906;52.046;4.724;2023-03-25T16:22:28;11.50;99.90
27540;DHT22;15906;52.046;4.724;2023-03-25T16:24:58;11.50;99.90
27540;DHT22;15906;52.046;4.724;2023-03-25T16:27:30;11.50;99.90
27540;DHT22;15906;52.046;4.724;2023-03-25T16:29:56;11.40;99.90
27540;DHT22;15906;52.046;4.724;2023-03-25T16:32:24;11.40;99.90
27540;DHT22;15906;52.046;4.724;2023-03-25T16:34:50;11.30;99.90
27540;DHT22;15906;52.046;4.724;2023-03-25T16:37:19;11.30;99.90
27540;DHT22;15906;52.046;4.724;2023-03-25T16:39:50;11.20;99.90
27540;DHT22;15906;52.046;4.724;2023-03-25T16:42:30;11.10;99.90
27540;DHT22;15906;52.046;4.724;2023-03-25T16:45:03;11.10;99.90
27540;DHT22;15906;52.046;4.724;2023-03-25T16:47:30;11.00;99.90
27540;DHT22;15906;52.046;4.724;2023-03-25T16:49:59;11.10;99.90
27540;DHT22;15906;52.046;4.724;2023-03-25T16:52:27;11.00;99.90
27540;DHT22;15906;52.046;4.724;2023-03-25T16:57:23;11.00;99.90
27540;DHT22;15906;52.046;4.724;2023-03-25T16:59:51;11.00;99.90
27540;DHT22;15906;52.046;4.724;2023-03-25T17:04:50;10.90;99.90
27540;DHT22;15906;52.046;4.724;2023-03-25T17:07:26;10.90;99.90
27540;DHT22;15906;52.046;4.724;2023-03-25T17:09:57;10.90;99.90
27540;DHT22;15906;52.046;4.724;2023-03-25T17:12:25;10.80;99.90
27540;DHT22;15906;52.046;4.724;2023-03-25T17:14:55;10.80;99.90
27540;DHT22;15906;52.046;4.724;2023-03-25T17:17:31;10.80;99.90
27540;DHT22;15906;52.046;4.724;2023-03-25T17:20:01;10.70;99.90
27540;DHT22;15906;52.046;4.724;2023-03-25T17:22:36;10.70;99.90
27540;DHT22;15906;52.046;4.724;2023-03-25T17:25:26;10.70;99.90
27540;DHT22;15906;52.046;4.724;2023-03-25T17:27:56;10.50;99.90
27540;DHT22;15906;52.046;4.724;2023-03-25T17:30:32;10.50;99.90
27540;DHT22;15906;52.046;4.724;2023-03-25T17:35:51;10.50;99.90
27540;DHT22;15906;52.046;4.724;2023-03-25T17:38:41;10.50;99.90
27540;DHT22;15906;52.046;4.724;2023-03-25T17:41:13;10.40;99.90
27540;DHT22;15906;52.046;4.724;2023-03-25T17:43:48;10.40;99.90
27540;DHT22;15906;52.046;4.724;2023-03-25T17:46:22;10.30;99.90
27540;DHT22;15906;52.046;4.724;2023-03-25T17:48:49;10.30;99.90
27540;DHT22;15906;52.046;4.724;2023-03-25T17:51:18;10.30;99.90
27540;DHT22;15906;52.046;4.724;2023-03-25T17:53:45;10.30;99.90
27540;DHT22;15906;52.046;4.724;2023-03-25T17:56:12;10.20;99.90
27540;DHT22;15906;52.046;4.724;2023-03-25T17:58:38;10.30;99.90
27540;DHT22;15906;52.046;4.724;2023-03-25T18:01:04;10.20;99.90
27540;DHT22;15906;52.046;4.724;2023-03-25T18:03:31;10.10;99.90
27540;DHT22;15906;52.046;4.724;2023-03-25T18:05:58;10.00;99.90
27540;DHT22;15906;52.046;4.724;2023-03-25T18:08:26;9.90;99.90
27540;DHT22;15906;52.046;4.724;2023-03-25T18:10:53;10.00;99.90
27540;DHT22;15906;52.046;4.724;2023-03-25T18:13:19;10.00;99.90
27540;DHT22;15906;52.046;4.724;2023-03-25T18:15:46;9.90;99.90
27540;DHT22;15906;52.046;4.724;2023-03-25T18:18:18;9.90;99.90